Time;durP1;ratioP1;P1;durP2;ratioP2;P2;SDS_P1;SDS_P2;PMS_P1;PMS_P2;Temp;Humidity;BMP_temperature;BMP_pressure;BME280_temperature;BME280_humidity;BME280_pressure;Samples;Min_cycle;Max_cycle;Signal;HPM_P1;HPM_P2
2023/02/17 00:00:26;;;;;;;40.00;28.87;;;;;;;3.66;100.00;102323.44;2072420;28;20269;-67
2023/02/17 00:01:30;;;;;;;43.17;30.23;;;;;;;3.54;100.00;102315.22;2072111;28;20248;-68
2023/02/17 00:02:30;;;;;;;38.97;28.45;;;;;;;3.57;100.00;102330.19;2065853;28;20268;-67
2023/02/17 00:03:30;;;;;;;28.27;20.93;;;;;;;3.49;100.00;102334.63;2071700;28;20455;-67
2023/02/17 00:04:33;;;;;;;29.50;20.03;;;;;;;3.50;100.00;102327.22;2071944;28;20638;-67
2023/02/17 00:05:33;;;;;;;27.17;19.98;;;;;;;3.56;100.00;102331.31;2070163;28;20223;-67
2023/02/17 00:06:33;;;;;;;24.67;17.77;;;;;;;3.56;100.00;102329.41;2067600;28;20194;-67
2023/02/17 00:07:34;;;;;;;22.70;17.00;;;;;;;3.58;100.00;102335.31;2069210;28;20197;-67
2023/02/17 00:08:35;;;;;;;21.27;15.63;;;;;;;2.37;100.00;102128.31;2065999;28;20185;-67
2023/02/17 00:09:36;;;;;;;21.23;15.18;;;;;;;3.74;100.00;102333.47;2071887;28;20281;-67
2023/02/17 00:10:37;;;;;;;17.70;14.47;;;;;;;3.85;100.00;102333.81;2072513;28;20201;-67
2023/02/17 00:11:37;;;;;;;18.63;14.33;;;;;;;4.04;100.00;102333.97;2071444;28;20197;-68
2023/02/17 00:12:37;;;;;;;19.70;14.60;;;;;;;4.27;100.00;102327.59;2072196;28;20545;-67
2023/02/17 00:13:38;;;;;;;20.87;14.53;;;;;;;4.29;100.00;102335.50;2071478;28;20259;-67
2023/02/17 00:14:39;;;;;;;18.40;14.10;;;;;;;4.36;100.00;102328.25;2072043;28;20209;-67
2023/02/17 00:15:39;;;;;;;17.50;13.83;;;;;;;4.67;100.00;102330.31;2070443;28;20252;-67
2023/02/17 00:16:40;;;;;;;18.67;13.83;;;;;;;4.83;100.00;102334.66;2071233;28;20200;-67
2023/02/17 00:17:41;;;;;;;21.40;14.77;;;;;;;4.90;100.00;102339.56;2072036;28;20213;-67
2023/02/17 00:18:41;;;;;;;17.97;13.87;;;;;;;4.91;100.00;102309.00;2072014;28;20217;-67
2023/02/17 00:19:42;;;;;;;19.77;14.00;;;;;;;5.17;100.00;102335.94;2072265;28;20205;-67
2023/02/17 00:20:42;;;;;;;20.03;13.80;;;;;;;5.29;100.00;102331.13;2071856;28;20340;-67
2023/02/17 00:21:43;;;;;;;19.57;14.07;;;;;;;5.30;100.00;102315.47;2071604;28;20199;-67
2023/02/17 00:22:43;;;;;;;20.57;14.93;;;;;;;5.52;100.00;102328.56;2072197;28;20652;-67
2023/02/17 00:23:45;;;;;;;18.53;13.93;;;;;;;5.54;100.00;102326.25;2071492;28;20286;-68
2023/02/17 00:24:45;;;;;;;20.17;14.13;;;;;;;5.73;100.00;102326.28;2071894;28;20264;-67
2023/02/17 00:25:46;;;;;;;20.87;14.47;;;;;;;5.81;100.00;102331.66;2069433;28;20194;-67
2023/02/17 00:26:46;;;;;;;20.20;14.97;;;;;;;5.17;100.00;102217.75;2072045;28;20628;-67
2023/02/17 00:27:47;;;;;;;21.13;15.27;;;;;;;5.95;100.00;102318.19;2063819;28;20557;-67
2023/02/17 00:28:48;;;;;;;22.23;15.80;;;;;;;6.02;100.00;102331.31;2070622;28;20656;-67
2023/02/17 00:29:49;;;;;;;24.90;16.58;;;;;;;6.04;100.00;102323.47;2071617;28;20199;-67
2023/02/17 00:30:49;;;;;;;20.47;15.00;;;;;;;6.08;100.00;102325.16;2071986;28;20291;-67
2023/02/17 00:31:53;;;;;;;22.23;15.20;;;;;;;6.18;100.00;102327.34;2071450;28;20204;-67
2023/02/17 00:32:53;;;;;;;21.35;15.73;;;;;;;6.25;100.00;102319.22;2072071;28;20201;-67
2023/02/17 00:33:54;;;;;;;22.37;14.43;;;;;;;5.47;100.00;102210.59;2071449;28;20278;-67
2023/02/17 00:34:57;;;;;;;20.80;15.05;;;;;;;6.33;100.00;102320.97;2071631;28;20264;-68
2023/02/17 00:35:57;;;;;;;20.92;15.25;;;;;;;6.40;100.00;102329.38;2071248;28;20197;-67
2023/02/17 00:36:58;;;;;;;19.03;14.30;;;;;;;6.22;100.00;102288.88;2071774;28;20207;-67
2023/02/17 00:37:58;;;;;;;21.70;14.60;;;;;;;6.43;100.00;102322.34;2071991;28;20287;-67
2023/02/17 00:38:59;;;;;;;19.83;13.97;;;;;;;6.46;100.00;102308.63;2071432;28;20211;-67
2023/02/17 00:39:59;;;;;;;17.57;13.73;;;;;;;6.54;100.00;102306.81;2067219;28;20627;-67
2023/02/17 00:40:59;;;;;;;20.73;14.70;;;;;;;5.77;100.00;102181.38;2067076;28;20227;-67
2023/02/17 00:42:00;;;;;;;19.60;14.53;;;;;;;6.55;100.00;102298.19;2069857;28;20193;-67
2023/02/17 00:43:00;;;;;;;19.00;14.00;;;;;;;5.95;100.00;102190.81;2064978;28;20187;-67
2023/02/17 00:44:01;;;;;;;18.20;14.40;;;;;;;6.64;100.00;102304.28;2072403;28;20184;-68
2023/02/17 00:45:01;;;;;;;19.50;14.50;;;;;;;6.69;100.00;102297.66;2063367;28;20181;-67
2023/02/17 00:46:02;;;;;;;16.80;13.50;;;;;;;6.70;100.00;102302.00;2069390;28;20231;-67
2023/02/17 00:47:03;;;;;;;19.30;14.45;;;;;;;6.76;100.00;102303.31;2065691;28;20233;-67
2023/02/17 00:48:03;;;;;;;19.17;14.20;;;;;;;6.75;100.00;102298.94;2070118;28;20676;-67
2023/02/17 00:49:04;;;;;;;22.80;14.67;;;;;;;6.68;100.00;102301.56;2071881;28;20215;-68
2023/02/17 00:50:05;;;;;;;20.07;14.30;;;;;;;6.03;100.00;102200.78;2071579;28;20191;-67
2023/02/17 00:51:06;;;;;;;18.63;13.85;;;;;;;6.72;100.00;102300.47;2071387;28;20210;-67
2023/02/17 00:52:06;;;;;;;22.13;13.83;;;;;;;6.71;100.00;102298.88;2070377;28;20599;-68
2023/02/17 00:53:07;;;;;;;19.40;14.20;;;;;;;6.71;100.00;102295.34;2071431;28;20216;-67
2023/02/17 00:54:07;;;;;;;18.33;13.50;;;;;;;6.82;100.00;102304.59;2071841;28;20200;-67
2023/02/17 00:55:08;;;;;;;17.10;13.70;;;;;;;6.87;100.00;102324.38;2071144;28;20208;-67
2023/02/17 00:56:09;;;;;;;19.93;14.20;;;;;;;6.29;100.00;102203.66;2070995;28;20296;-67
2023/02/17 00:57:09;;;;;;;17.23;13.68;;;;;;;6.96;100.00;102300.13;2070535;28;20291;-67
2023/02/17 00:58:10;;;;;;;17.80;13.30;;;;;;;6.95;100.00;102300.50;2068757;28;20204;-67
2023/02/17 00:59:11;;;;;;;18.20;14.13;;;;;;;6.67;100.00;102277.94;2067215;28;20311;-67
2023/02/17 01:00:12;;;;;;;19.92;14.73;;;;;;;6.94;100.00;102299.72;2070823;28;20231;-67
2023/02/17 01:01:13;;;;;;;17.38;14.02;;;;;;;6.22;100.00;102176.81;2067308;28;20188;-67
2023/02/17 01:02:13;;;;;;;16.63;13.30;;;;;;;7.01;100.00;102301.75;2071992;28;20215;-67
2023/02/17 01:03:14;;;;;;;20.93;14.20;;;;;;;6.75;100.00;102250.16;2065383;28;20205;-67
2023/02/17 01:04:14;;;;;;;18.20;14.07;;;;;;;6.97;100.00;102293.44;2068962;28;20191;-67
2023/02/17 01:05:15;;;;;;;18.03;13.83;;;;;;;7.00;100.00;102302.94;2066856;28;20208;-67
2023/02/17 01:06:23;;;;;;;18.17;13.63;;;;;;;7.09;100.00;102293.28;2071404;28;20589;-67
2023/02/17 01:07:24;;;;;;;19.83;13.82;;;;;;;7.11;100.00;102290.94;2071287;28;20251;-67
2023/02/17 01:08:24;;;;;;;18.17;13.93;;;;;;;7.09;100.00;102292.47;2071635;28;20188;-67
2023/02/17 01:09:25;;;;;;;18.13;13.80;;;;;;;7.24;100.00;102288.78;2071686;28;20204;-67
2023/02/17 01:10:25;;;;;;;18.97;14.40;;;;;;;7.18;100.00;102285.53;2071587;28;20186;-68
2023/02/17 01:11:28;;;;;;;18.27;14.43;;;;;;;7.22;100.00;102285.59;2071274;28;20426;-68
2023/02/17 01:12:28;;;;;;;17.65;13.70;;;;;;;7.26;100.00;102283.69;2071768;28;20208;-67
2023/02/17 01:13:29;;;;;;;20.37;14.07;;;;;;;7.31;100.00;102292.44;2071595;28;20201;-68
2023/02/17 01:14:29;;;;;;;19.97;14.83;;;;;;;7.00;100.00;102243.09;2071164;28;20236;-67
2023/02/17 01:15:30;;;;;;;17.83;13.57;;;;;;;7.32;99.66;102291.28;2067377;28;20241;-67
2023/02/17 01:16:37;;;;;;;18.65;14.30;;;;;;;7.37;99.77;102290.16;2067879;28;20728;-68
2023/02/17 01:17:37;;;;;;;18.13;13.65;;;;;;;7.38;99.39;102295.31;2069779;28;20193;-68
2023/02/17 01:18:38;;;;;;;18.57;13.73;;;;;;;7.43;99.23;102294.22;2063805;28;20205;-68
2023/02/17 01:19:38;;;;;;;19.03;14.40;;;;;;;7.46;98.45;102290.69;2071815;28;20225;-67
2023/02/17 01:20:40;;;;;;;17.87;14.50;;;;;;;7.37;98.30;102271.66;2064290;28;20202;-67
2023/02/17 01:21:40;;;;;;;21.08;14.20;;;;;;;7.43;97.85;102292.22;2069362;28;20201;-67
2023/02/17 01:22:41;;;;;;;17.90;13.97;;;;;;;7.15;97.68;102252.38;2065916;28;20225;-67
2023/02/17 01:23:41;;;;;;;18.43;14.57;;;;;;;7.43;97.05;102288.69;2066528;28;20241;-67
2023/02/17 01:24:41;;;;;;;18.57;14.03;;;;;;;7.45;97.41;102287.16;2071619;28;20197;-67
2023/02/17 01:25:45;;;;;;;19.77;14.40;;;;;;;7.42;97.30;102290.66;2070730;28;20181;-67
2023/02/17 01:26:45;;;;;;;19.02;13.95;;;;;;;7.30;97.81;102293.63;2071274;28;20196;-67
2023/02/17 01:27:46;;;;;;;18.67;13.67;;;;;;;7.26;98.43;102284.50;2071737;28;20185;-68
2023/02/17 01:28:48;;;;;;;18.50;14.33;;;;;;;7.20;98.47;102305.28;2063741;28;20194;-67
2023/02/17 01:29:48;;;;;;;20.90;14.77;;;;;;;7.15;99.22;102286.28;2070562;28;20275;-68
2023/02/17 01:30:48;;;;;;;17.20;14.30;;;;;;;6.84;98.79;102227.84;2071831;28;20193;-68
2023/02/17 01:31:49;;;;;;;17.53;14.37;;;;;;;6.86;99.18;102225.53;2070924;28;20641;-67
2023/02/17 01:32:49;;;;;;;18.33;14.47;;;;;;;7.12;99.59;102287.00;2071561;28;20200;-67
2023/02/17 01:33:50;;;;;;;19.30;14.97;;;;;;;7.08;100.00;102283.38;2071410;28;20650;-67
2023/02/17 01:34:50;;;;;;;18.77;14.60;;;;;;;7.10;100.00;102283.84;2071377;28;20264;-67
2023/02/17 01:35:51;;;;;;;19.13;14.93;;;;;;;7.06;100.00;102274.69;2069560;28;20275;-67
2023/02/17 01:36:51;;;;;;;18.50;14.63;;;;;;;7.18;100.00;102287.50;2071028;28;20189;-67
2023/02/17 01:37:51;;;;;;;21.30;14.50;;;;;;;7.23;100.00;102278.91;2064500;28;20201;-67
2023/02/17 01:38:52;;;;;;;19.27;14.40;;;;;;;6.91;99.85;102219.69;2069192;28;20235;-67
2023/02/17 01:39:53;;;;;;;17.83;14.23;;;;;;;6.81;99.85;102212.84;2066885;28;20278;-67
2023/02/17 01:40:54;;;;;;;19.53;14.20;;;;;;;7.32;99.49;102284.94;2067427;28;20213;-68
2023/02/17 01:41:55;;;;;;;19.10;14.48;;;;;;;7.34;99.33;102282.63;2070683;28;20204;-67
2023/02/17 01:42:55;;;;;;;18.37;13.90;;;;;;;7.27;99.32;102280.56;2071044;28;20729;-67
2023/02/17 01:44:32;;;;;;;19.17;14.97;;;;;;;7.08;100.00;102269.59;2071457;28;20434;-68
2023/02/17 01:45:40;;;;;;;19.67;14.75;;;;;;;7.20;100.00;102277.69;2065066;28;20210;-67
2023/02/17 01:46:43;;;;;;;19.23;14.40;;;;;;;7.06;100.00;102260.09;2071167;28;20675;-68
2023/02/17 01:48:00;;;;;;;18.50;14.23;;;;;;;7.00;100.00;102270.66;2071257;28;20484;-67
2023/02/17 01:49:09;;;;;;;20.00;15.00;;;;;;;6.92;100.00;102277.22;2071200;28;20484;-67
2023/02/17 01:50:10;;;;;;;18.33;14.65;;;;;;;6.84;100.00;102274.69;2071802;28;20710;-68
2023/02/17 01:51:27;;;;;;;20.23;14.53;;;;;;;6.78;100.00;102265.97;2070860;28;20670;-67
2023/02/17 01:52:27;;;;;;;18.17;14.23;;;;;;;6.72;100.00;102253.63;2067529;28;20208;-67
2023/02/17 01:54:06;;;;;;;21.10;15.87;;;;;;;6.85;100.00;102268.03;2070451;28;20205;-67
2023/02/17 01:55:11;;;;;;;18.20;14.15;;;;;;;6.73;100.00;102249.75;2073340;28;20279;-68
2023/02/17 01:56:14;;;;;;;20.08;15.32;;;;;;;6.09;100.00;102131.34;2078641;28;20204;-68
2023/02/17 01:57:18;;;;;;;19.90;14.77;;;;;;;6.90;100.00;102252.00;2071800;28;20240;-67
2023/02/17 01:58:22;;;;;;;19.48;15.18;;;;;;;6.63;100.00;102214.53;2062815;28;20571;-68
2023/02/17 01:59:23;;;;;;;18.08;14.60;;;;;;;7.04;100.00;102260.50;2065443;28;20975;-68
2023/02/17 02:00:27;;;;;;;19.67;14.70;;;;;;;7.08;100.00;102258.56;2071770;28;20535;-67
2023/02/17 02:01:29;;;;;;;21.55;15.98;;;;;;;7.14;100.00;102262.63;2070567;28;20201;-68
2023/02/17 02:02:30;;;;;;;20.02;14.98;;;;;;;7.14;100.00;102256.31;2070662;28;20193;-68
2023/02/17 02:03:35;;;;;;;20.52;15.02;;;;;;;7.24;100.00;102248.22;2071331;28;20189;-67
2023/02/17 02:04:40;;;;;;;19.70;15.25;;;;;;;6.96;100.00;102206.41;2071407;28;20235;-67
2023/02/17 02:05:41;;;;;;;18.42;14.70;;;;;;;6.88;100.00;102204.69;2062847;28;20660;-67
2023/02/17 02:06:43;;;;;;;20.15;15.05;;;;;;;7.23;100.00;102251.34;2070849;28;20674;-68
2023/02/17 02:07:46;;;;;;;22.05;15.38;;;;;;;7.28;100.00;102248.28;2072289;28;20718;-67
2023/02/17 02:09:04;;;;;;;19.98;15.70;;;;;;;6.86;100.00;102179.47;2072945;28;20196;-67
2023/02/17 02:10:05;;;;;;;20.67;14.80;;;;;;;7.30;100.00;102248.69;2072752;28;20200;-67
2023/02/17 02:11:06;;;;;;;19.70;14.68;;;;;;;7.24;100.00;102255.69;2066726;28;20190;-67
2023/02/17 02:12:37;;;;;;;19.73;15.47;;;;;;;7.29;100.00;102244.34;2070155;28;20204;-67
2023/02/17 02:13:37;;;;;;;19.88;14.93;;;;;;;6.72;100.00;102151.69;2071319;28;20204;-67
2023/02/17 02:14:38;;;;;;;19.07;14.77;;;;;;;7.26;100.00;102225.78;2072982;28;20259;-68
2023/02/17 02:15:50;;;;;;;18.90;14.83;;;;;;;7.43;100.00;102253.63;2071870;28;20197;-67
2023/02/17 02:17:20;;;;;;;20.85;15.23;;;;;;;7.19;100.00;102223.72;2072854;28;20190;-68
2023/02/17 02:18:40;;;;;;;20.58;15.18;;;;;;;7.30;100.00;102245.94;2065044;28;20170;-67
2023/02/17 02:20:10;;;;;;;21.13;15.35;;;;;;;7.29;100.00;102236.84;2068591;28;20185;-68
2023/02/17 02:21:35;;;;;;;23.75;15.18;;;;;;;7.29;100.00;102236.84;2072639;28;20201;-67
2023/02/17 02:22:42;;;;;;;20.75;14.93;;;;;;;7.30;100.00;102237.66;2066451;28;20201;-67
2023/02/17 02:24:08;;;;;;;19.55;15.05;;;;;;;7.33;100.00;102234.94;2064196;28;20628;-67
2023/02/17 02:25:35;;;;;;;21.95;15.13;;;;;;;7.37;100.00;102237.75;2072169;28;20592;-68
2023/02/17 02:26:54;;;;;;;21.23;15.77;;;;;;;7.46;100.00;102227.25;2069550;28;20233;-68
2023/02/17 02:28:31;;;;;;;18.52;14.73;;;;;;;7.42;100.00;102229.97;2072969;28;20186;-67
2023/02/17 02:29:53;;;;;;;19.67;15.55;;;;;;;7.42;100.00;102238.25;2072831;28;20205;-67
2023/02/17 02:31:16;;;;;;;20.75;15.05;;;;;;;7.47;100.00;102226.88;2072244;28;20208;-67
2023/02/17 02:32:27;;;;;;;20.35;15.65;;;;;;;7.23;100.00;102191.47;2070414;28;20193;-67
2023/02/17 02:33:42;;;;;;;20.05;16.00;;;;;;;7.53;100.00;102230.91;2064032;28;20321;-67
2023/02/17 02:34:52;;;;;;;20.90;16.10;;;;;;;7.59;99.75;102232.16;2070420;28;20276;-67
2023/02/17 02:36:25;;;;;;;20.60;15.93;;;;;;;7.63;99.92;102230.25;2069364;28;20189;-67
2023/02/17 02:37:38;;;;;;;21.50;16.67;;;;;;;7.53;99.12;102208.84;2072601;28;20385;-68
2023/02/17 02:38:50;;;;;;;22.77;16.80;;;;;;;7.66;99.02;102231.47;2072385;28;20197;-68
2023/02/17 02:39:53;;;;;;;22.00;16.33;;;;;;;7.00;99.08;102124.59;2072427;28;20515;-67
2023/02/17 02:41:20;;;;;;;22.02;16.90;;;;;;;7.07;99.54;102145.94;2072613;28;20598;-68
2023/02/17 02:42:23;;;;;;;22.88;17.00;;;;;;;7.63;99.59;102229.47;2072116;28;20209;-67
2023/02/17 02:43:24;;;;;;;20.90;16.48;;;;;;;6.90;100.00;102158.28;2065926;28;20200;-67
2023/02/17 02:44:24;;;;;;;21.48;16.60;;;;;;;7.37;100.00;102233.03;2069252;28;20279;-67
2023/02/17 02:45:25;;;;;;;21.03;16.63;;;;;;;7.41;100.00;102227.56;2071900;28;20284;-67
2023/02/17 02:46:25;;;;;;;21.40;16.87;;;;;;;6.27;100.00;102049.06;2072886;28;20209;-68
2023/02/17 02:47:46;;;;;;;22.33;16.30;;;;;;;7.11;100.00;102180.66;2072261;28;20204;-67
2023/02/17 02:48:47;;;;;;;21.88;16.83;;;;;;;7.46;100.00;102222.53;2072089;28;20201;-67
2023/02/17 02:49:48;;;;;;;22.77;16.48;;;;;;;7.36;100.00;102197.56;2070398;28;20193;-68
2023/02/17 02:50:58;;;;;;;22.53;16.77;;;;;;;7.55;100.00;102223.06;2065752;28;20181;-67
2023/02/17 02:52:11;;;;;;;23.83;17.30;;;;;;;7.49;100.00;102221.00;2071886;28;20608;-68
2023/02/17 02:53:33;;;;;;;23.25;17.13;;;;;;;7.45;100.00;102215.44;2071794;28;20628;-67
2023/02/17 02:54:50;;;;;;;21.20;16.88;;;;;;;7.42;100.00;102221.69;2072458;28;20189;-68
2023/02/17 02:56:13;;;;;;;21.50;16.13;;;;;;;7.45;100.00;102220.16;2071610;28;20309;-68
2023/02/17 02:57:26;;;;;;;20.05;15.73;;;;;;;7.48;100.00;102225.72;2071880;28;20726;-67
2023/02/17 02:58:46;;;;;;;24.75;16.90;;;;;;;7.53;100.00;102228.16;2072273;28;20235;-68
2023/02/17 03:00:04;;;;;;;19.83;16.67;;;;;;;7.54;100.00;102228.97;2067376;28;20178;-67
2023/02/17 03:01:12;;;;;;;22.60;16.48;;;;;;;6.69;100.00;102099.28;2064541;28;20228;-67
2023/02/17 03:02:28;;;;;;;22.45;17.02;;;;;;;7.33;100.00;102210.13;2072024;28;20177;-67
2023/02/17 03:03:48;;;;;;;22.63;17.10;;;;;;;7.48;100.00;102225.72;2072269;28;20264;-68
2023/02/17 03:05:06;;;;;;;21.45;16.65;;;;;;;7.54;100.00;102235.25;2072591;28;20196;-67
2023/02/17 03:06:22;;;;;;;21.58;17.63;;;;;;;7.57;100.00;102234.50;2071762;28;20197;-68
2023/02/17 03:07:30;;;;;;;23.50;17.27;;;;;;;7.60;100.00;102231.03;2071690;28;20193;-68
2023/02/17 03:08:37;;;;;;;21.70;16.77;;;;;;;7.58;100.00;102240.84;2072822;28;20200;-67
2023/02/17 03:09:38;;;;;;;22.60;16.45;;;;;;;6.83;100.00;102116.06;2071931;28;20244;-67
2023/02/17 03:10:51;;;;;;;25.60;18.73;;;;;;;7.58;100.00;102236.09;2069174;28;20201;-67
2023/02/17 03:11:54;;;;;;;22.92;18.08;;;;;;;7.18;100.00;102160.66;2069444;28;20633;-67
2023/02/17 03:12:55;;;;;;;25.13;18.50;;;;;;;7.57;100.00;102231.75;2069332;28;20655;-68
2023/02/17 03:13:59;;;;;;;23.57;17.20;;;;;;;7.62;100.00;102227.88;2066790;28;20550;-67
2023/02/17 03:15:07;;;;;;;23.23;18.08;;;;;;;6.56;100.00;102070.38;2071837;28;20182;-67
2023/02/17 03:16:07;;;;;;;26.25;18.10;;;;;;;7.56;100.00;102226.59;2071497;28;20695;-67
2023/02/17 03:17:08;;;;;;;24.03;17.77;;;;;;;7.62;100.00;102234.19;2072090;28;20572;-68
2023/02/17 03:18:08;;;;;;;23.47;17.50;;;;;;;7.63;100.00;102232.25;2073042;28;20189;-68
2023/02/17 03:19:10;;;;;;;24.57;18.43;;;;;;;7.65;100.00;102241.72;2072423;28;20419;-67
2023/02/17 03:20:12;;;;;;;25.10;18.60;;;;;;;7.67;100.00;102239.38;2072241;28;20694;-67
2023/02/17 03:21:16;;;;;;;24.25;18.08;;;;;;;7.57;100.00;102233.72;2072033;28;20189;-67
2023/02/17 03:22:22;;;;;;;24.63;18.02;;;;;;;7.59;100.00;102240.44;2071714;28;20279;-68
2023/02/17 03:23:22;;;;;;;20.88;17.27;;;;;;;7.57;100.00;102229.00;2071874;28;20316;-67
2023/02/17 03:24:23;;;;;;;22.13;17.27;;;;;;;7.60;100.00;102236.53;2069117;28;20329;-68
2023/02/17 03:25:24;;;;;;;22.10;17.10;;;;;;;7.62;100.00;102233.38;2069628;28;20239;-67
2023/02/17 03:26:24;;;;;;;24.00;17.90;;;;;;;7.58;100.00;102241.63;2072664;28;20822;-67
2023/02/17 03:27:24;;;;;;;23.60;17.40;;;;;;;7.46;100.00;102230.00;2072758;28;20456;-67
2023/02/17 03:28:25;;;;;;;23.17;17.23;;;;;;;7.53;100.00;102233.66;2072728;28;20282;-67
2023/02/17 03:29:25;;;;;;;22.60;17.63;;;;;;;7.22;100.00;102184.38;2071603;28;20248;-68
2023/02/17 03:30:27;;;;;;;22.73;17.73;;;;;;;7.24;100.00;102176.53;2072616;28;20231;-68
2023/02/17 03:31:27;;;;;;;23.92;17.70;;;;;;;7.62;100.00;102241.66;2071854;28;20284;-67
2023/02/17 03:32:28;;;;;;;22.80;18.27;;;;;;;7.54;100.00;102213.19;2069178;28;20208;-67
2023/02/17 03:33:28;;;;;;;24.53;17.40;;;;;;;7.67;100.00;102239.38;2065782;28;20174;-68
2023/02/17 03:34:28;;;;;;;23.60;18.27;;;;;;;7.64;100.00;102237.38;2071239;28;20201;-67
2023/02/17 03:35:29;;;;;;;23.37;17.47;;;;;;;7.55;100.00;102239.63;2069676;28;20439;-67
2023/02/17 03:36:29;;;;;;;25.77;18.17;;;;;;;6.59;100.00;102094.41;2072338;28;20225;-68
2023/02/17 03:37:30;;;;;;;22.27;18.00;;;;;;;7.11;100.00;102168.81;2070770;28;20626;-68
2023/02/17 03:38:30;;;;;;;20.73;16.73;;;;;;;7.62;100.00;102241.66;2071503;28;20279;-68
2023/02/17 03:39:31;;;;;;;24.57;17.10;;;;;;;7.44;100.00;102205.56;2071926;28;20240;-67
2023/02/17 03:40:31;;;;;;;22.50;17.87;;;;;;;7.49;100.00;102245.81;2068675;28;20654;-67
2023/02/17 03:41:32;;;;;;;23.80;18.27;;;;;;;7.47;100.00;102246.19;2065679;28;20178;-67
2023/02/17 03:42:32;;;;;;;22.30;17.10;;;;;;;7.37;100.00;102235.81;2071857;28;20188;-67
2023/02/17 03:43:34;;;;;;;25.23;17.70;;;;;;;7.33;100.00;102229.44;2072192;28;20192;-68
2023/02/17 03:44:34;;;;;;;23.27;17.80;;;;;;;7.38;100.00;102231.09;2072194;28;20678;-68
2023/02/17 03:45:36;;;;;;;22.77;17.57;;;;;;;7.40;100.00;102243.34;2070833;28;20641;-67
2023/02/17 03:46:39;;;;;;;23.52;18.63;;;;;;;7.35;100.00;102248.38;2072376;28;20189;-68
2023/02/17 03:47:40;;;;;;;23.25;18.38;;;;;;;7.34;100.00;102242.03;2071754;28;20190;-67
2023/02/17 03:48:40;;;;;;;24.40;18.77;;;;;;;6.77;100.00;102153.34;2067877;28;20200;-67
2023/02/17 03:49:41;;;;;;;25.87;19.47;;;;;;;6.37;100.00;102085.03;2063697;28;20259;-68
2023/02/17 03:50:41;;;;;;;23.70;18.20;;;;;;;7.35;100.00;102249.19;2071130;28;20192;-67
2023/02/17 03:51:42;;;;;;;25.13;18.23;;;;;;;7.32;100.00;102240.81;2071317;28;20181;-68
2023/02/17 03:52:43;;;;;;;23.97;17.97;;;;;;;7.27;100.00;102243.91;2070336;28;20181;-68
2023/02/17 03:53:44;;;;;;;23.50;17.80;;;;;;;7.30;100.00;102243.97;2071770;28;20197;-68
2023/02/17 03:54:44;;;;;;;22.30;18.13;;;;;;;7.06;100.00;102214.06;2072454;28;20236;-67
2023/02/17 03:55:45;;;;;;;22.30;17.53;;;;;;;7.32;100.00;102244.41;2070667;28;20201;-68
2023/02/17 03:56:45;;;;;;;23.00;18.00;;;;;;;7.32;100.00;102244.41;2072063;28;20247;-68
2023/02/17 03:57:46;;;;;;;22.13;17.27;;;;;;;7.35;100.00;102251.13;2071887;28;20228;-67
2023/02/17 03:58:46;;;;;;;22.07;17.00;;;;;;;6.51;100.00;102125.78;2072115;28;20209;-67
2023/02/17 03:59:47;;;;;;;23.23;16.70;;;;;;;7.31;100.00;102251.09;2072110;28;20185;-68
2023/02/17 04:00:47;;;;;;;19.37;16.00;;;;;;;7.36;100.00;102247.19;2072080;28;20220;-68
2023/02/17 04:01:47;;;;;;;20.50;16.10;;;;;;;7.41;100.00;102257.91;2070981;28;20279;-68
2023/02/17 04:02:48;;;;;;;22.10;17.03;;;;;;;7.13;100.00;102218.88;2071528;28;20200;-67
2023/02/17 04:03:49;;;;;;;21.60;16.10;;;;;;;6.95;100.00;102168.19;2071776;28;20216;-68
2023/02/17 04:04:49;;;;;;;19.30;15.43;;;;;;;7.26;100.00;102234.03;2072006;28;20569;-68
2023/02/17 04:05:49;;;;;;;20.07;15.87;;;;;;;7.57;100.00;102253.84;2067883;28;20194;-67
2023/02/17 04:06:50;;;;;;;17.40;14.80;;;;;;;7.54;100.00;102259.31;2065223;28;20221;-68
2023/02/17 04:07:50;;;;;;;19.27;15.30;;;;;;;7.15;100.00;102175.19;2071260;28;20597;-67
2023/02/17 04:08:51;;;;;;;20.33;15.77;;;;;;;7.23;100.00;102190.69;2072380;28;20239;-68
2023/02/17 04:09:51;;;;;;;21.27;16.17;;;;;;;7.71;100.00;102250.47;2067492;28;20247;-68
2023/02/17 04:10:57;;;;;;;20.93;16.03;;;;;;;7.83;100.00;102252.97;2070860;28;20212;-67
2023/02/17 04:11:57;;;;;;;21.70;16.00;;;;;;;7.91;100.00;102263.78;2071652;28;20286;-68
2023/02/17 04:12:58;;;;;;;20.87;16.17;;;;;;;7.92;100.00;102279.16;2071711;28;20234;-68
2023/02/17 04:13:58;;;;;;;20.53;16.23;;;;;;;8.00;99.91;102255.97;2067850;28;20248;-67
2023/02/17 04:14:59;;;;;;;21.50;15.47;;;;;;;8.01;99.94;102265.88;2071330;28;20207;-68
2023/02/17 04:16:03;;;;;;;21.43;16.37;;;;;;;7.03;99.94;102112.00;2071431;28;20623;-68
2023/02/17 04:17:03;;;;;;;21.27;16.67;;;;;;;8.02;100.00;102258.38;2071520;28;20320;-67
2023/02/17 04:18:03;;;;;;;17.13;15.03;;;;;;;8.12;99.45;102260.47;2072585;28;20215;-68
2023/02/17 04:19:05;;;;;;;21.33;16.20;;;;;;;8.08;98.70;102265.13;2071791;28;20217;-68
2023/02/17 04:20:07;;;;;;;21.52;15.80;;;;;;;8.14;98.53;102266.38;2071996;28;20233;-68
2023/02/17 04:21:07;;;;;;;22.48;16.25;;;;;;;8.21;98.15;102259.03;2066128;28;20248;-68
2023/02/17 04:22:08;;;;;;;20.63;16.10;;;;;;;8.25;98.14;102264.59;2069240;28;20259;-67
2023/02/17 04:23:09;;;;;;;20.10;16.17;;;;;;;8.14;97.42;102244.31;2071509;28;20186;-68
2023/02/17 04:24:10;;;;;;;20.00;16.33;;;;;;;8.21;96.82;102247.97;2071676;28;20177;-68
2023/02/17 04:25:10;;;;;;;18.87;15.83;;;;;;;8.41;96.08;102265.19;2069933;28;20170;-67
2023/02/17 04:26:10;;;;;;;20.03;15.43;;;;;;;8.42;96.05;102262.06;2064057;28;20209;-68
2023/02/17 04:27:11;;;;;;;21.63;17.20;;;;;;;8.54;94.54;102266.50;2071378;28;20280;-68
2023/02/17 04:28:13;;;;;;;19.43;15.70;;;;;;;8.50;94.64;102266.47;2071176;28;20201;-68
2023/02/17 04:29:13;;;;;;;20.83;16.08;;;;;;;8.50;94.84;102260.94;2072163;28;20198;-68
2023/02/17 04:30:14;;;;;;;20.97;16.47;;;;;;;8.53;93.87;102257.44;2068429;28;20198;-67
2023/02/17 04:31:14;;;;;;;22.77;16.90;;;;;;;8.55;93.82;102265.31;2070935;28;20611;-68
2023/02/17 04:32:15;;;;;;;21.03;16.00;;;;;;;8.49;93.56;102253.00;2071624;28;20178;-68
2023/02/17 04:33:16;;;;;;;21.93;16.23;;;;;;;8.56;93.34;102258.63;2071420;28;20348;-68
2023/02/17 04:34:17;;;;;;;20.95;16.38;;;;;;;8.64;92.46;102257.50;2071598;28;20546;-67
2023/02/17 04:35:17;;;;;;;18.67;15.87;;;;;;;8.57;92.10;102249.16;2071089;28;20186;-68
2023/02/17 04:36:17;;;;;;;21.73;16.67;;;;;;;7.39;91.80;102059.69;2072195;28;20293;-68
2023/02/17 04:37:18;;;;;;;20.07;16.33;;;;;;;8.31;90.95;102196.81;2071142;28;20201;-68
2023/02/17 04:38:18;;;;;;;21.13;16.20;;;;;;;7.50;90.78;102062.59;2068639;28;20677;-68
2023/02/17 04:39:19;;;;;;;20.23;16.73;;;;;;;7.83;90.63;102124.06;2072100;28;20364;-67
2023/02/17 04:40:20;;;;;;;21.10;16.23;;;;;;;8.70;90.67;102261.53;2071845;28;20655;-68
2023/02/17 04:41:20;;;;;;;20.57;16.10;;;;;;;8.68;90.11;102261.94;2070846;28;20332;-68
2023/02/17 04:42:21;;;;;;;21.00;15.93;;;;;;;8.67;90.92;102260.31;2071954;28;20210;-68
2023/02/17 04:43:23;;;;;;;19.83;16.07;;;;;;;8.64;90.77;102263.84;2071159;28;20273;-68
2023/02/17 04:44:23;;;;;;;20.30;15.90;;;;;;;7.79;90.98;102122.44;2064506;28;20207;-68
2023/02/17 04:45:23;;;;;;;18.43;15.90;;;;;;;8.66;90.46;102258.72;2068937;28;20275;-68
2023/02/17 04:46:24;;;;;;;23.00;16.43;;;;;;;8.61;91.28;102252.75;2066767;28;20206;-68
2023/02/17 04:47:24;;;;;;;18.93;15.57;;;;;;;8.45;91.42;102238.41;2067119;28;20986;-68
2023/02/17 04:48:25;;;;;;;19.33;15.73;;;;;;;8.17;91.06;102186.38;2072110;28;20193;-68
2023/02/17 04:49:26;;;;;;;21.30;15.98;;;;;;;8.50;91.07;102241.59;2071693;28;20224;-68
2023/02/17 04:50:26;;;;;;;19.17;15.43;;;;;;;8.60;91.10;102257.50;2071451;28;20284;-68
2023/02/17 04:51:27;;;;;;;20.37;15.97;;;;;;;8.63;91.15;102269.75;2071791;28;20194;-68